sensor_id;sensor_type;location;lat;lon;timestamp;P1;durP1;ratioP1;P2;durP2;ratioP2
16892;SDS011;8563;52.242;9.098;2023-09-08T00:00:24;5.65;;;3.03;;
16892;SDS011;8563;52.242;9.098;2023-09-08T00:02:56;3.15;;;2.85;;
16892;SDS011;8563;52.242;9.098;2023-09-08T00:05:28;3.47;;;2.75;;
16892;SDS011;8563;52.242;9.098;2023-09-08T00:08:01;3.10;;;2.90;;
16892;SDS011;8563;52.242;9.098;2023-09-08T00:10:34;3.05;;;2.65;;
16892;SDS011;8563;52.242;9.098;2023-09-08T00:13:06;3.28;;;3.08;;
16892;SDS011;8563;52.242;9.098;2023-09-08T00:15:39;2.90;;;2.65;;
16892;SDS011;8563;52.242;9.098;2023-09-08T00:18:11;3.03;;;2.72;;
16892;SDS011;8563;52.242;9.098;2023-09-08T00:20:43;3.20;;;2.90;;
16892;SDS011;8563;52.242;9.098;2023-09-08T00:23:15;3.30;;;3.00;;
16892;SDS011;8563;52.242;9.098;2023-09-08T00:25:50;3.38;;;3.08;;
16892;SDS011;8563;52.242;9.098;2023-09-08T00:28:22;3.13;;;2.83;;
16892;SDS011;8563;52.242;9.098;2023-09-08T00:30:54;4.60;;;3.00;;
16892;SDS011;8563;52.242;9.098;2023-09-08T00:33:26;3.90;;;3.13;;
16892;SDS011;8563;52.242;9.098;2023-09-08T00:35:58;3.30;;;3.00;;
16892;SDS011;8563;52.242;9.098;2023-09-08T00:38:31;3.63;;;3.00;;
16892;SDS011;8563;52.242;9.098;2023-09-08T00:41:05;3.35;;;3.00;;
16892;SDS011;8563;52.242;9.098;2023-09-08T00:43:37;3.50;;;3.20;;
16892;SDS011;8563;52.242;9.098;2023-09-08T00:46:09;3.30;;;3.00;;
16892;SDS011;8563;52.242;9.098;2023-09-08T00:48:43;3.33;;;3.03;;
16892;SDS011;8563;52.242;9.098;2023-09-08T00:51:16;3.97;;;3.15;;
16892;SDS011;8563;52.242;9.098;2023-09-08T00:53:48;3.33;;;3.00;;
16892;SDS011;8563;52.242;9.098;2023-09-08T00:56:22;3.75;;;3.10;;
16892;SDS011;8563;52.242;9.098;2023-09-08T00:58:55;3.13;;;2.92;;
16892;SDS011;8563;52.242;9.098;2023-09-08T01:01:27;3.38;;;3.08;;
16892;SDS011;8563;52.242;9.098;2023-09-08T01:04:00;3.85;;;3.45;;
16892;SDS011;8563;52.242;9.098;2023-09-08T01:06:32;3.58;;;3.28;;
16892;SDS011;8563;52.242;9.098;2023-09-08T01:09:04;3.50;;;3.20;;
16892;SDS011;8563;52.242;9.098;2023-09-08T01:11:38;3.30;;;3.00;;
16892;SDS011;8563;52.242;9.098;2023-09-08T01:14:11;3.60;;;3.15;;
16892;SDS011;8563;52.242;9.098;2023-09-08T01:16:44;3.47;;;3.17;;
16892;SDS011;8563;52.242;9.098;2023-09-08T01:19:16;3.38;;;3.08;;
16892;SDS011;8563;52.242;9.098;2023-09-08T01:21:52;4.82;;;3.58;;
16892;SDS011;8563;52.242;9.098;2023-09-08T01:27:43;3.72;;;3.35;;
16892;SDS011;8563;52.242;9.098;2023-09-08T01:30:17;4.85;;;3.28;;
16892;SDS011;8563;52.242;9.098;2023-09-08T01:32:51;3.90;;;3.00;;
16892;SDS011;8563;52.242;9.098;2023-09-08T01:35:25;4.25;;;3.88;;
16892;SDS011;8563;52.242;9.098;2023-09-08T01:37:57;3.72;;;3.42;;
16892;SDS011;8563;52.242;9.098;2023-09-08T01:40:31;5.55;;;3.35;;
16892;SDS011;8563;52.242;9.098;2023-09-08T01:43:04;5.53;;;3.30;;
16892;SDS011;8563;52.242;9.098;2023-09-08T01:45:36;4.72;;;3.53;;
16892;SDS011;8563;52.242;9.098;2023-09-08T01:48:09;4.38;;;3.33;;
16892;SDS011;8563;52.242;9.098;2023-09-08T01:50:41;3.40;;;3.10;;
16892;SDS011;8563;52.242;9.098;2023-09-08T01:53:13;3.80;;;3.45;;
16892;SDS011;8563;52.242;9.098;2023-09-08T01:55:47;4.00;;;3.60;;
16892;SDS011;8563;52.242;9.098;2023-09-08T01:58:19;3.55;;;3.25;;
16892;SDS011;8563;52.242;9.098;2023-09-08T02:00:52;5.45;;;3.42;;
16892;SDS011;8563;52.242;9.098;2023-09-08T02:03:24;5.38;;;3.35;;
16892;SDS011;8563;52.242;9.098;2023-09-08T02:05:56;4.10;;;3.70;;
16892;SDS011;8563;52.242;9.098;2023-09-08T02:08:29;4.18;;;3.67;;
16892;SDS011;8563;52.242;9.098;2023-09-08T02:11:04;6.05;;;3.58;;
16892;SDS011;8563;52.242;9.098;2023-09-08T02:13:36;3.78;;;3.47;;
16892;SDS011;8563;52.242;9.098;2023-09-08T02:16:12;3.75;;;3.45;;
16892;SDS011;8563;52.242;9.098;2023-09-08T02:18:45;4.00;;;3.60;;
16892;SDS011;8563;52.242;9.098;2023-09-08T02:21:17;5.22;;;3.55;;
16892;SDS011;8563;52.242;9.098;2023-09-08T02:23:49;3.58;;;3.28;;
16892;SDS011;8563;52.242;9.098;2023-09-08T02:26:23;4.78;;;3.72;;
16892;SDS011;8563;52.242;9.098;2023-09-08T02:28:57;10.45;;;3.85;;
16892;SDS011;8563;52.242;9.098;2023-09-08T02:31:29;5.53;;;4.00;;
16892;SDS011;8563;52.242;9.098;2023-09-08T02:34:02;4.47;;;3.50;;
16892;SDS011;8563;52.242;9.098;2023-09-08T02:36:35;4.63;;;3.50;;
16892;SDS011;8563;52.242;9.098;2023-09-08T02:39:07;5.18;;;3.50;;
16892;SDS011;8563;52.242;9.098;2023-09-08T02:41:42;4.63;;;3.85;;
16892;SDS011;8563;52.242;9.098;2023-09-08T02:44:14;4.65;;;3.50;;
16892;SDS011;8563;52.242;9.098;2023-09-08T02:46:47;3.90;;;3.50;;
16892;SDS011;8563;52.242;9.098;2023-09-08T02:49:20;5.60;;;4.03;;
16892;SDS011;8563;52.242;9.098;2023-09-08T02:51:52;4.38;;;3.58;;
16892;SDS011;8563;52.242;9.098;2023-09-08T02:54:24;4.00;;;3.63;;
16892;SDS011;8563;52.242;9.098;2023-09-08T02:56:57;4.55;;;3.95;;
16892;SDS011;8563;52.242;9.098;2023-09-08T02:59:30;4.20;;;3.85;;
16892;SDS011;8563;52.242;9.098;2023-09-08T03:02:02;4.28;;;3.88;;
16892;SDS011;8563;52.242;9.098;2023-09-08T03:04:34;4.13;;;3.65;;
16892;SDS011;8563;52.242;9.098;2023-09-08T03:07:07;6.30;;;3.70;;
16892;SDS011;8563;52.242;9.098;2023-09-08T03:09:39;4.70;;;3.90;;
16892;SDS011;8563;52.242;9.098;2023-09-08T03:12:13;4.15;;;3.75;;
16892;SDS011;8563;52.242;9.098;2023-09-08T03:14:45;4.80;;;3.85;;
16892;SDS011;8563;52.242;9.098;2023-09-08T03:17:17;4.85;;;4.15;;
16892;SDS011;8563;52.242;9.098;2023-09-08T03:19:50;4.95;;;3.60;;
16892;SDS011;8563;52.242;9.098;2023-09-08T03:22:22;4.45;;;3.55;;
16892;SDS011;8563;52.242;9.098;2023-09-08T03:24:55;5.78;;;4.00;;
16892;SDS011;8563;52.242;9.098;2023-09-08T03:27:29;5.38;;;4.00;;
16892;SDS011;8563;52.242;9.098;2023-09-08T03:30:01;6.22;;;4.00;;
16892;SDS011;8563;52.242;9.098;2023-09-08T03:32:35;4.30;;;3.90;;
16892;SDS011;8563;52.242;9.098;2023-09-08T03:35:08;4.60;;;4.07;;
16892;SDS011;8563;52.242;9.098;2023-09-08T03:37:40;3.88;;;3.42;;
16892;SDS011;8563;52.242;9.098;2023-09-08T03:40:13;4.63;;;3.92;;
16892;SDS011;8563;52.242;9.098;2023-09-08T03:42:46;4.60;;;3.60;;
16892;SDS011;8563;52.242;9.098;2023-09-08T03:45:18;7.75;;;4.05;;
16892;SDS011;8563;52.242;9.098;2023-09-08T03:47:51;4.35;;;3.92;;
16892;SDS011;8563;52.242;9.098;2023-09-08T03:50:23;3.85;;;3.55;;
16892;SDS011;8563;52.242;9.098;2023-09-08T03:52:55;5.47;;;4.07;;
16892;SDS011;8563;52.242;9.098;2023-09-08T03:55:28;5.07;;;4.57;;
16892;SDS011;8563;52.242;9.098;2023-09-08T03:58:02;4.30;;;3.63;;
16892;SDS011;8563;52.242;9.098;2023-09-08T04:00:34;4.85;;;4.35;;
16892;SDS011;8563;52.242;9.098;2023-09-08T04:03:07;4.85;;;4.35;;
16892;SDS011;8563;52.242;9.098;2023-09-08T04:05:39;5.13;;;4.60;;
16892;SDS011;8563;52.242;9.098;2023-09-08T04:08:12;4.57;;;4.18;;
16892;SDS011;8563;52.242;9.098;2023-09-08T04:10:44;7.15;;;4.03;;
16892;SDS011;8563;52.242;9.098;2023-09-08T04:13:18;5.18;;;4.20;;
16892;SDS011;8563;52.242;9.098;2023-09-08T04:15:50;5.65;;;3.97;;
16892;SDS011;8563;52.242;9.098;2023-09-08T04:18:22;4.45;;;3.83;;
16892;SDS011;8563;52.242;9.098;2023-09-08T04:20:54;4.03;;;3.65;;
16892;SDS011;8563;52.242;9.098;2023-09-08T04:23:27;5.47;;;4.45;;
16892;SDS011;8563;52.242;9.098;2023-09-08T04:25:59;6.10;;;4.18;;
16892;SDS011;8563;52.242;9.098;2023-09-08T04:28:33;4.55;;;3.97;;
16892;SDS011;8563;52.242;9.098;2023-09-08T04:31:05;4.22;;;3.83;;
16892;SDS011;8563;52.242;9.098;2023-09-08T04:33:38;4.72;;;4.22;;
16892;SDS011;8563;52.242;9.098;2023-09-08T04:36:10;4.45;;;4.05;;
16892;SDS011;8563;52.242;9.098;2023-09-08T04:38:43;5.20;;;4.07;;
16892;SDS011;8563;52.242;9.098;2023-09-08T04:41:15;5.15;;;4.40;;
16892;SDS011;8563;52.242;9.098;2023-09-08T04:43:49;6.32;;;4.20;;
16892;SDS011;8563;52.242;9.098;2023-09-08T04:46:21;4.43;;;4.03;;
16892;SDS011;8563;52.242;9.098;2023-09-08T04:48:53;4.15;;;3.78;;
16892;SDS011;8563;52.242;9.098;2023-09-08T04:51:27;4.20;;;3.80;;
16892;SDS011;8563;52.242;9.098;2023-09-08T04:53:59;4.82;;;3.92;;
16892;SDS011;8563;52.242;9.098;2023-09-08T04:56:31;4.00;;;3.70;;
16892;SDS011;8563;52.242;9.098;2023-09-08T04:59:05;3.90;;;3.60;;
16892;SDS011;8563;52.242;9.098;2023-09-08T05:01:37;3.92;;;3.53;;
16892;SDS011;8563;52.242;9.098;2023-09-08T05:04:11;4.68;;;4.22;;
16892;SDS011;8563;52.242;9.098;2023-09-08T05:06:44;3.85;;;3.53;;
16892;SDS011;8563;52.242;9.098;2023-09-08T05:09:16;5.10;;;3.50;;
16892;SDS011;8563;52.242;9.098;2023-09-08T05:11:49;4.63;;;3.90;;
16892;SDS011;8563;52.242;9.098;2023-09-08T05:14:22;4.90;;;4.40;;
16892;SDS011;8563;52.242;9.098;2023-09-08T05:16:56;5.43;;;3.95;;
16892;SDS011;8563;52.242;9.098;2023-09-08T05:19:31;4.10;;;3.78;;
16892;SDS011;8563;52.242;9.098;2023-09-08T05:22:04;4.25;;;3.83;;
16892;SDS011;8563;52.242;9.098;2023-09-08T05:24:37;4.40;;;4.00;;
16892;SDS011;8563;52.242;9.098;2023-09-08T05:27:10;4.40;;;4.00;;
16892;SDS011;8563;52.242;9.098;2023-09-08T05:29:44;4.43;;;3.90;;
16892;SDS011;8563;52.242;9.098;2023-09-08T05:32:16;4.00;;;3.60;;
16892;SDS011;8563;52.242;9.098;2023-09-08T05:34:49;4.43;;;4.00;;
16892;SDS011;8563;52.242;9.098;2023-09-08T05:37:21;5.15;;;4.38;;
16892;SDS011;8563;52.242;9.098;2023-09-08T05:39:53;5.13;;;4.13;;
16892;SDS011;8563;52.242;9.098;2023-09-08T05:42:26;4.45;;;4.03;;
16892;SDS011;8563;52.242;9.098;2023-09-08T05:45:00;7.72;;;4.63;;
16892;SDS011;8563;52.242;9.098;2023-09-08T05:47:32;4.90;;;4.13;;
16892;SDS011;8563;52.242;9.098;2023-09-08T05:50:06;4.53;;;4.13;;
16892;SDS011;8563;52.242;9.098;2023-09-08T05:52:39;5.18;;;3.80;;
16892;SDS011;8563;52.242;9.098;2023-09-08T05:55:11;4.28;;;3.88;;
16892;SDS011;8563;52.242;9.098;2023-09-08T05:57:44;4.20;;;3.30;;
16892;SDS011;8563;52.242;9.098;2023-09-08T06:00:18;4.15;;;3.75;;
16892;SDS011;8563;52.242;9.098;2023-09-08T06:02:53;4.22;;;3.83;;
16892;SDS011;8563;52.242;9.098;2023-09-08T06:05:26;4.05;;;3.65;;
16892;SDS011;8563;52.242;9.098;2023-09-08T06:07:58;6.68;;;4.03;;
16892;SDS011;8563;52.242;9.098;2023-09-08T06:10:31;3.95;;;3.50;;
16892;SDS011;8563;52.242;9.098;2023-09-08T06:13:03;4.22;;;3.83;;
16892;SDS011;8563;52.242;9.098;2023-09-08T06:15:37;3.90;;;3.50;;
16892;SDS011;8563;52.242;9.098;2023-09-08T06:18:10;4.30;;;3.90;;
16892;SDS011;8563;52.242;9.098;2023-09-08T06:20:45;4.00;;;3.53;;
16892;SDS011;8563;52.242;9.098;2023-09-08T06:23:19;4.13;;;3.72;;
16892;SDS011;8563;52.242;9.098;2023-09-08T06:25:55;4.53;;;3.28;;
16892;SDS011;8563;52.242;9.098;2023-09-08T06:28:30;5.68;;;3.47;;
16892;SDS011;8563;52.242;9.098;2023-09-08T06:31:05;4.75;;;3.70;;
16892;SDS011;8563;52.242;9.098;2023-09-08T06:33:37;3.95;;;3.63;;
16892;SDS011;8563;52.242;9.098;2023-09-08T06:36:09;4.72;;;3.30;;
16892;SDS011;8563;52.242;9.098;2023-09-08T06:38:41;4.72;;;3.33;;
16892;SDS011;8563;52.242;9.098;2023-09-08T06:41:15;4.38;;;3.97;;
16892;SDS011;8563;52.242;9.098;2023-09-08T06:43:47;3.60;;;3.30;;
16892;SDS011;8563;52.242;9.098;2023-09-08T06:46:26;5.50;;;3.90;;
16892;SDS011;8563;52.242;9.098;2023-09-08T06:48:59;3.80;;;3.33;;
16892;SDS011;8563;52.242;9.098;2023-09-08T06:51:31;4.97;;;3.30;;
16892;SDS011;8563;52.242;9.098;2023-09-08T06:54:03;3.75;;;3.45;;
16892;SDS011;8563;52.242;9.098;2023-09-08T06:56:41;5.18;;;4.05;;
16892;SDS011;8563;52.242;9.098;2023-09-08T06:59:13;4.18;;;3.78;;
16892;SDS011;8563;52.242;9.098;2023-09-08T07:01:49;3.92;;;3.60;;
16892;SDS011;8563;52.242;9.098;2023-09-08T07:04:21;3.47;;;3.17;;
16892;SDS011;8563;52.242;9.098;2023-09-08T07:06:53;4.65;;;3.22;;
16892;SDS011;8563;52.242;9.098;2023-09-08T07:09:26;4.40;;;3.40;;
16892;SDS011;8563;52.242;9.098;2023-09-08T07:11:59;4.47;;;3.60;;
16892;SDS011;8563;52.242;9.098;2023-09-08T07:14:32;4.25;;;3.85;;
16892;SDS011;8563;52.242;9.098;2023-09-08T07:17:06;4.95;;;3.83;;
16892;SDS011;8563;52.242;9.098;2023-09-08T07:19:38;4.80;;;3.20;;
16892;SDS011;8563;52.242;9.098;2023-09-08T07:22:10;3.78;;;3.47;;
16892;SDS011;8563;52.242;9.098;2023-09-08T07:24:43;3.55;;;3.25;;
16892;SDS011;8563;52.242;9.098;2023-09-08T07:27:15;3.63;;;3.33;;
16892;SDS011;8563;52.242;9.098;2023-09-08T07:29:49;3.95;;;3.40;;
16892;SDS011;8563;52.242;9.098;2023-09-08T07:32:22;5.43;;;3.47;;
16892;SDS011;8563;52.242;9.098;2023-09-08T07:34:55;4.97;;;3.58;;
16892;SDS011;8563;52.242;9.098;2023-09-08T07:37:28;4.22;;;3.45;;
16892;SDS011;8563;52.242;9.098;2023-09-08T07:40:01;3.65;;;3.35;;
16892;SDS011;8563;52.242;9.098;2023-09-08T07:42:33;4.25;;;3.08;;
16892;SDS011;8563;52.242;9.098;2023-09-08T07:45:06;5.88;;;3.50;;
16892;SDS011;8563;52.242;9.098;2023-09-08T07:47:41;5.10;;;3.47;;
16892;SDS011;8563;52.242;9.098;2023-09-08T07:50:17;3.92;;;3.50;;
16892;SDS011;8563;52.242;9.098;2023-09-08T07:52:51;3.97;;;3.08;;
16892;SDS011;8563;52.242;9.098;2023-09-08T07:55:25;4.57;;;2.97;;
16892;SDS011;8563;52.242;9.098;2023-09-08T07:58:01;5.57;;;3.28;;
16892;SDS011;8563;52.242;9.098;2023-09-08T08:00:34;4.40;;;3.60;;
16892;SDS011;8563;52.242;9.098;2023-09-08T08:03:07;4.05;;;3.42;;
16892;SDS011;8563;52.242;9.098;2023-09-08T08:05:39;3.58;;;3.17;;
16892;SDS011;8563;52.242;9.098;2023-09-08T08:08:11;3.42;;;2.97;;
16892;SDS011;8563;52.242;9.098;2023-09-08T08:10:44;3.45;;;3.15;;
16892;SDS011;8563;52.242;9.098;2023-09-08T08:13:16;3.30;;;3.00;;
16892;SDS011;8563;52.242;9.098;2023-09-08T08:15:48;3.88;;;3.40;;
16892;SDS011;8563;52.242;9.098;2023-09-08T08:18:22;3.88;;;3.50;;
16892;SDS011;8563;52.242;9.098;2023-09-08T08:20:54;3.42;;;3.13;;
16892;SDS011;8563;52.242;9.098;2023-09-08T08:23:26;4.25;;;3.78;;
16892;SDS011;8563;52.242;9.098;2023-09-08T08:25:58;3.58;;;3.28;;
16892;SDS011;8563;52.242;9.098;2023-09-08T08:28:30;3.65;;;3.35;;
16892;SDS011;8563;52.242;9.098;2023-09-08T08:31:03;3.85;;;3.47;;
16892;SDS011;8563;52.242;9.098;2023-09-08T08:33:36;4.47;;;3.63;;
16892;SDS011;8563;52.242;9.098;2023-09-08T08:36:08;5.22;;;3.53;;
16892;SDS011;8563;52.242;9.098;2023-09-08T08:38:40;4.57;;;3.33;;
16892;SDS011;8563;52.242;9.098;2023-09-08T08:41:13;4.40;;;3.80;;
16892;SDS011;8563;52.242;9.098;2023-09-08T08:43:45;3.67;;;3.38;;
16892;SDS011;8563;52.242;9.098;2023-09-08T08:46:18;4.47;;;3.42;;
16892;SDS011;8563;52.242;9.098;2023-09-08T08:48:55;5.45;;;4.07;;
16892;SDS011;8563;52.242;9.098;2023-09-08T08:51:27;3.55;;;3.22;;
16892;SDS011;8563;52.242;9.098;2023-09-08T08:54:01;3.45;;;3.15;;
16892;SDS011;8563;52.242;9.098;2023-09-08T08:56:35;4.22;;;3.38;;
16892;SDS011;8563;52.242;9.098;2023-09-08T08:59:08;6.43;;;3.60;;
16892;SDS011;8563;52.242;9.098;2023-09-08T09:01:41;3.42;;;3.05;;
16892;SDS011;8563;52.242;9.098;2023-09-08T09:04:15;3.63;;;3.25;;
16892;SDS011;8563;52.242;9.098;2023-09-08T09:06:49;6.00;;;3.42;;
16892;SDS011;8563;52.242;9.098;2023-09-08T09:09:22;5.22;;;3.53;;
16892;SDS011;8563;52.242;9.098;2023-09-08T09:11:55;4.13;;;3.72;;
16892;SDS011;8563;52.242;9.098;2023-09-08T09:14:27;6.35;;;3.60;;
16892;SDS011;8563;52.242;9.098;2023-09-08T09:16:59;5.38;;;3.50;;
16892;SDS011;8563;52.242;9.098;2023-09-08T09:19:33;3.85;;;3.55;;
16892;SDS011;8563;52.242;9.098;2023-09-08T09:22:07;3.78;;;3.30;;
16892;SDS011;8563;52.242;9.098;2023-09-08T09:24:40;5.55;;;3.58;;
16892;SDS011;8563;52.242;9.098;2023-09-08T09:27:13;3.58;;;3.28;;
16892;SDS011;8563;52.242;9.098;2023-09-08T09:29:46;5.15;;;3.78;;
16892;SDS011;8563;52.242;9.098;2023-09-08T09:32:23;4.80;;;3.50;;
16892;SDS011;8563;52.242;9.098;2023-09-08T09:34:57;4.85;;;3.90;;
16892;SDS011;8563;52.242;9.098;2023-09-08T09:37:31;5.10;;;3.50;;
16892;SDS011;8563;52.242;9.098;2023-09-08T09:40:03;5.43;;;3.45;;
16892;SDS011;8563;52.242;9.098;2023-09-08T09:42:38;3.85;;;3.40;;
16892;SDS011;8563;52.242;9.098;2023-09-08T09:45:11;5.18;;;3.25;;
16892;SDS011;8563;52.242;9.098;2023-09-08T09:47:43;6.80;;;4.05;;
16892;SDS011;8563;52.242;9.098;2023-09-08T09:50:17;4.85;;;3.40;;
16892;SDS011;8563;52.242;9.098;2023-09-08T09:52:59;6.22;;;3.38;;
16892;SDS011;8563;52.242;9.098;2023-09-08T09:55:33;6.15;;;3.60;;
16892;SDS011;8563;52.242;9.098;2023-09-08T09:58:07;3.63;;;3.15;;
16892;SDS011;8563;52.242;9.098;2023-09-08T10:00:41;7.18;;;3.72;;
16892;SDS011;8563;52.242;9.098;2023-09-08T10:03:17;3.83;;;3.53;;
16892;SDS011;8563;52.242;9.098;2023-09-08T10:05:52;7.07;;;3.58;;
16892;SDS011;8563;52.242;9.098;2023-09-08T10:08:25;3.90;;;3.35;;
16892;SDS011;8563;52.242;9.098;2023-09-08T10:10:59;4.13;;;3.20;;
16892;SDS011;8563;52.242;9.098;2023-09-08T10:13:38;3.67;;;3.38;;
16892;SDS011;8563;52.242;9.098;2023-09-08T10:16:15;4.10;;;3.65;;
16892;SDS011;8563;52.242;9.098;2023-09-08T10:18:49;4.00;;;3.25;;
16892;SDS011;8563;52.242;9.098;2023-09-08T10:21:26;4.60;;;3.65;;
16892;SDS011;8563;52.242;9.098;2023-09-08T10:24:02;3.70;;;3.22;;
16892;SDS011;8563;52.242;9.098;2023-09-08T10:26:43;6.55;;;3.53;;
16892;SDS011;8563;52.242;9.098;2023-09-08T10:29:18;3.38;;;3.08;;
16892;SDS011;8563;52.242;9.098;2023-09-08T10:31:51;4.10;;;3.63;;
16892;SDS011;8563;52.242;9.098;2023-09-08T10:34:23;4.28;;;3.50;;
16892;SDS011;8563;52.242;9.098;2023-09-08T10:36:58;3.60;;;3.30;;
16892;SDS011;8563;52.242;9.098;2023-09-08T10:39:31;4.53;;;4.10;;
16892;SDS011;8563;52.242;9.098;2023-09-08T10:42:22;5.15;;;3.72;;
16892;SDS011;8563;52.242;9.098;2023-09-08T10:45:00;4.00;;;3.45;;
16892;SDS011;8563;52.242;9.098;2023-09-08T10:47:39;3.58;;;3.22;;
16892;SDS011;8563;52.242;9.098;2023-09-08T10:50:27;3.40;;;3.10;;
16892;SDS011;8563;52.242;9.098;2023-09-08T10:53:08;4.97;;;3.55;;
16892;SDS011;8563;52.242;9.098;2023-09-08T10:55:49;3.10;;;2.90;;
16892;SDS011;8563;52.242;9.098;2023-09-08T10:58:29;3.60;;;3.30;;
16892;SDS011;8563;52.242;9.098;2023-09-08T11:01:04;3.78;;;3.47;;
16892;SDS011;8563;52.242;9.098;2023-09-08T11:03:44;10.18;;;3.58;;
16892;SDS011;8563;52.242;9.098;2023-09-08T11:06:18;4.50;;;3.38;;
16892;SDS011;8563;52.242;9.098;2023-09-08T11:08:53;3.47;;;3.17;;
16892;SDS011;8563;52.242;9.098;2023-09-08T11:11:26;4.38;;;3.40;;
16892;SDS011;8563;52.242;9.098;2023-09-08T11:13:58;4.70;;;3.67;;
16892;SDS011;8563;52.242;9.098;2023-09-08T11:16:31;4.60;;;3.38;;
16892;SDS011;8563;52.242;9.098;2023-09-08T11:19:03;6.75;;;3.60;;
16892;SDS011;8563;52.242;9.098;2023-09-08T11:21:35;3.30;;;3.10;;
16892;SDS011;8563;52.242;9.098;2023-09-08T11:24:09;5.40;;;3.60;;
16892;SDS011;8563;52.242;9.098;2023-09-08T11:26:45;3.58;;;3.28;;
16892;SDS011;8563;52.242;9.098;2023-09-08T11:29:20;4.75;;;3.58;;
16892;SDS011;8563;52.242;9.098;2023-09-08T11:31:52;3.78;;;3.47;;
16892;SDS011;8563;52.242;9.098;2023-09-08T11:34:25;3.80;;;3.47;;
16892;SDS011;8563;52.242;9.098;2023-09-08T11:36:58;3.05;;;2.85;;
16892;SDS011;8563;52.242;9.098;2023-09-08T11:39:31;4.85;;;3.30;;
16892;SDS011;8563;52.242;9.098;2023-09-08T11:42:08;3.60;;;3.17;;
16892;SDS011;8563;52.242;9.098;2023-09-08T11:44:42;3.30;;;3.00;;
16892;SDS011;8563;52.242;9.098;2023-09-08T11:47:14;3.45;;;3.15;;
16892;SDS011;8563;52.242;9.098;2023-09-08T11:49:46;3.25;;;2.95;;
16892;SDS011;8563;52.242;9.098;2023-09-08T11:52:18;3.60;;;3.30;;
16892;SDS011;8563;52.242;9.098;2023-09-08T11:54:55;3.33;;;3.00;;
16892;SDS011;8563;52.242;9.098;2023-09-08T11:57:28;3.97;;;3.40;;
16892;SDS011;8563;52.242;9.098;2023-09-08T12:00:01;3.80;;;3.40;;
16892;SDS011;8563;52.242;9.098;2023-09-08T12:02:35;3.75;;;3.20;;
16892;SDS011;8563;52.242;9.098;2023-09-08T12:05:11;6.95;;;3.55;;
16892;SDS011;8563;52.242;9.098;2023-09-08T12:07:43;3.47;;;3.17;;
16892;SDS011;8563;52.242;9.098;2023-09-08T12:10:17;4.88;;;3.13;;
16892;SDS011;8563;52.242;9.098;2023-09-08T12:12:50;3.55;;;3.25;;
16892;SDS011;8563;52.242;9.098;2023-09-08T12:15:31;3.60;;;3.28;;
16892;SDS011;8563;52.242;9.098;2023-09-08T12:18:05;3.90;;;2.85;;
16892;SDS011;8563;52.242;9.098;2023-09-08T12:20:39;3.58;;;3.08;;
16892;SDS011;8563;52.242;9.098;2023-09-08T12:23:18;4.85;;;3.72;;
16892;SDS011;8563;52.242;9.098;2023-09-08T12:25:52;3.45;;;3.15;;
16892;SDS011;8563;52.242;9.098;2023-09-08T12:28:24;3.67;;;3.38;;
16892;SDS011;8563;52.242;9.098;2023-09-08T12:31:02;3.30;;;3.10;;
16892;SDS011;8563;52.242;9.098;2023-09-08T12:33:34;3.75;;;3.22;;
16892;SDS011;8563;52.242;9.098;2023-09-08T12:36:10;3.15;;;2.95;;
16892;SDS011;8563;52.242;9.098;2023-09-08T12:38:46;3.22;;;2.92;;
16892;SDS011;8563;52.242;9.098;2023-09-08T12:41:21;3.17;;;2.90;;
16892;SDS011;8563;52.242;9.098;2023-09-08T12:43:53;3.20;;;3.00;;
16892;SDS011;8563;52.242;9.098;2023-09-08T12:46:25;3.50;;;3.20;;
16892;SDS011;8563;52.242;9.098;2023-09-08T12:48:57;3.00;;;2.80;;
16892;SDS011;8563;52.242;9.098;2023-09-08T12:51:29;3.00;;;2.70;;
16892;SDS011;8563;52.242;9.098;2023-09-08T12:54:01;3.10;;;2.90;;
16892;SDS011;8563;52.242;9.098;2023-09-08T12:56:35;3.20;;;2.90;;
16892;SDS011;8563;52.242;9.098;2023-09-08T12:59:07;3.95;;;3.10;;
16892;SDS011;8563;52.242;9.098;2023-09-08T13:01:39;4.07;;;2.60;;
16892;SDS011;8563;52.242;9.098;2023-09-08T13:04:11;3.50;;;2.90;;
16892;SDS011;8563;52.242;9.098;2023-09-08T13:06:44;3.47;;;3.00;;
16892;SDS011;8563;52.242;9.098;2023-09-08T13:09:16;3.10;;;2.90;;
16892;SDS011;8563;52.242;9.098;2023-09-08T13:11:50;2.85;;;2.65;;
16892;SDS011;8563;52.242;9.098;2023-09-08T13:14:22;2.92;;;2.70;;
16892;SDS011;8563;52.242;9.098;2023-09-08T13:16:55;2.88;;;2.67;;
16892;SDS011;8563;52.242;9.098;2023-09-08T13:19:27;4.65;;;2.70;;
16892;SDS011;8563;52.242;9.098;2023-09-08T13:21:59;3.20;;;2.90;;
16892;SDS011;8563;52.242;9.098;2023-09-08T13:24:31;3.20;;;2.90;;
16892;SDS011;8563;52.242;9.098;2023-09-08T13:27:06;2.70;;;2.50;;
16892;SDS011;8563;52.242;9.098;2023-09-08T13:29:38;3.63;;;2.97;;
16892;SDS011;8563;52.242;9.098;2023-09-08T13:32:10;3.20;;;3.00;;
16892;SDS011;8563;52.242;9.098;2023-09-08T13:34:42;3.28;;;2.97;;
16892;SDS011;8563;52.242;9.098;2023-09-08T13:37:14;3.10;;;2.90;;
16892;SDS011;8563;52.242;9.098;2023-09-08T13:39:47;3.58;;;3.15;;
16892;SDS011;8563;52.242;9.098;2023-09-08T13:42:20;3.72;;;3.20;;
16892;SDS011;8563;52.242;9.098;2023-09-08T13:44:54;3.40;;;3.10;;
16892;SDS011;8563;52.242;9.098;2023-09-08T13:47:27;4.13;;;3.70;;
16892;SDS011;8563;52.242;9.098;2023-09-08T13:49:59;3.30;;;3.00;;
16892;SDS011;8563;52.242;9.098;2023-09-08T13:52:31;3.60;;;3.30;;
16892;SDS011;8563;52.242;9.098;2023-09-08T13:55:03;2.83;;;2.63;;
16892;SDS011;8563;52.242;9.098;2023-09-08T13:57:37;3.33;;;2.90;;
16892;SDS011;8563;52.242;9.098;2023-09-08T14:00:10;4.63;;;2.88;;
16892;SDS011;8563;52.242;9.098;2023-09-08T14:02:43;3.38;;;3.10;;
16892;SDS011;8563;52.242;9.098;2023-09-08T14:05:15;3.25;;;2.95;;
16892;SDS011;8563;52.242;9.098;2023-09-08T14:07:47;3.78;;;2.92;;
16892;SDS011;8563;52.242;9.098;2023-09-08T14:10:19;3.10;;;2.80;;
16892;SDS011;8563;52.242;9.098;2023-09-08T14:12:53;3.40;;;3.10;;
16892;SDS011;8563;52.242;9.098;2023-09-08T14:15:25;3.38;;;3.08;;
16892;SDS011;8563;52.242;9.098;2023-09-08T14:17:58;3.42;;;3.13;;
16892;SDS011;8563;52.242;9.098;2023-09-08T14:20:30;3.00;;;2.80;;
16892;SDS011;8563;52.242;9.098;2023-09-08T14:23:02;5.30;;;3.30;;
16892;SDS011;8563;52.242;9.098;2023-09-08T14:25:34;3.40;;;3.10;;
16892;SDS011;8563;52.242;9.098;2023-09-08T14:28:08;3.25;;;2.90;;
16892;SDS011;8563;52.242;9.098;2023-09-08T14:30:40;3.60;;;3.30;;
16892;SDS011;8563;52.242;9.098;2023-09-08T14:33:12;3.10;;;2.90;;
16892;SDS011;8563;52.242;9.098;2023-09-08T14:35:45;3.08;;;2.78;;
16892;SDS011;8563;52.242;9.098;2023-09-08T14:38:21;4.40;;;2.47;;
16892;SDS011;8563;52.242;9.098;2023-09-08T14:40:54;3.13;;;2.90;;
16892;SDS011;8563;52.242;9.098;2023-09-08T14:43:29;2.95;;;2.75;;
16892;SDS011;8563;52.242;9.098;2023-09-08T14:46:02;3.08;;;2.80;;
16892;SDS011;8563;52.242;9.098;2023-09-08T14:48:34;2.65;;;2.45;;
16892;SDS011;8563;52.242;9.098;2023-09-08T14:51:06;3.10;;;2.90;;
16892;SDS011;8563;52.242;9.098;2023-09-08T14:53:38;4.30;;;2.90;;
16892;SDS011;8563;52.242;9.098;2023-09-08T14:56:11;3.35;;;3.05;;
16892;SDS011;8563;52.242;9.098;2023-09-08T14:58:44;3.42;;;2.80;;
16892;SDS011;8563;52.242;9.098;2023-09-08T15:01:16;3.42;;;2.33;;
16892;SDS011;8563;52.242;9.098;2023-09-08T15:03:49;3.08;;;2.70;;
16892;SDS011;8563;52.242;9.098;2023-09-08T15:06:22;3.10;;;2.90;;
16892;SDS011;8563;52.242;9.098;2023-09-08T15:08:54;3.15;;;2.92;;
16892;SDS011;8563;52.242;9.098;2023-09-08T15:11:26;3.00;;;2.78;;
16892;SDS011;8563;52.242;9.098;2023-09-08T15:14:00;3.25;;;2.60;;
16892;SDS011;8563;52.242;9.098;2023-09-08T15:16:32;2.80;;;2.60;;
16892;SDS011;8563;52.242;9.098;2023-09-08T15:19:04;3.33;;;3.03;;
16892;SDS011;8563;52.242;9.098;2023-09-08T15:21:36;3.28;;;2.97;;
16892;SDS011;8563;52.242;9.098;2023-09-08T15:24:09;3.33;;;3.03;;
16892;SDS011;8563;52.242;9.098;2023-09-08T15:26:41;3.10;;;2.90;;
16892;SDS011;8563;52.242;9.098;2023-09-08T15:29:16;2.90;;;2.70;;
16892;SDS011;8563;52.242;9.098;2023-09-08T15:31:50;2.92;;;2.72;;
16892;SDS011;8563;52.242;9.098;2023-09-08T15:34:22;3.00;;;2.70;;
16892;SDS011;8563;52.242;9.098;2023-09-08T15:36:54;2.97;;;2.70;;
16892;SDS011;8563;52.242;9.098;2023-09-08T15:39:26;3.30;;;3.00;;